createdAt,value
2019-04-25T00:01:21.654Z,15.18
2019-04-25T00:03:53.463Z,16.85
2019-04-25T00:06:26.524Z,16.23
2019-04-25T00:08:58.298Z,16.37
2019-04-25T00:11:31.185Z,15.28
2019-04-25T00:14:03.256Z,14.95
2019-04-25T00:16:36.220Z,16.85
2019-04-25T00:19:08.089Z,15.65
2019-04-25T00:21:42.525Z,12.68
2019-04-25T00:24:15.990Z,24.37
2019-04-25T00:26:49.187Z,17.42
2019-04-25T00:29:22.023Z,12.80
2019-04-25T00:31:55.461Z,14.50
2019-04-25T00:34:27.075Z,11.57
2019-04-25T00:36:58.771Z,15.83
2019-04-25T00:39:31.962Z,17.20
2019-04-25T00:42:03.801Z,15.83
2019-04-25T00:44:36.513Z,18.15
2019-04-25T00:47:08.257Z,21.75
2019-04-25T00:49:43.068Z,17.12
2019-04-25T00:52:14.435Z,14.13
2019-04-25T00:54:46.504Z,14.30
2019-04-25T00:57:19.282Z,15.80
2019-04-25T00:59:53.138Z,18.02
2019-04-25T01:02:27.510Z,16.30
2019-04-25T01:04:59.493Z,16.10
2019-04-25T01:07:32.359Z,16.40
2019-04-25T01:10:05.851Z,19.65
2019-04-25T01:12:37.400Z,20.02
2019-04-25T01:15:12.026Z,17.20
2019-04-25T01:17:45.274Z,19.70
2019-04-25T01:20:17.387Z,18.23
2019-04-25T01:22:49.889Z,12.45
2019-04-25T01:25:23.389Z,12.88
2019-04-25T01:27:56.000Z,14.55
2019-04-25T01:30:29.128Z,14.95
2019-04-25T01:33:03.478Z,12.75
2019-04-25T01:35:36.633Z,15.15
2019-04-25T01:38:09.924Z,14.40
2019-04-25T01:40:43.951Z,16.42
2019-04-25T01:43:17.328Z,16.45
2019-04-25T01:45:49.668Z,16.50
2019-04-25T01:48:21.308Z,20.55
2019-04-25T01:50:54.562Z,11.60
2019-04-25T01:53:26.415Z,13.08
2019-04-25T01:56:04.104Z,16.07
2019-04-25T01:58:33.647Z,18.77
2019-04-25T02:01:05.873Z,17.95
2019-04-25T02:03:37.350Z,14.75
2019-04-25T02:06:10.315Z,17.35
2019-04-25T02:08:43.895Z,17.20
2019-04-25T02:11:17.100Z,16.23
2019-04-25T02:13:51.313Z,19.85
2019-04-25T02:16:23.838Z,15.72
2019-04-25T02:18:56.403Z,16.70
2019-04-25T02:21:28.226Z,16.40
2019-04-25T02:24:00.215Z,11.73
2019-04-25T02:26:32.167Z,16.60
2019-04-25T02:29:04.687Z,12.98
2019-04-25T02:31:36.715Z,16.62
2019-04-25T02:34:08.829Z,16.25
2019-04-25T02:36:41.025Z,17.30
2019-04-25T02:39:15.055Z,15.40
2019-04-25T02:41:46.997Z,14.53
2019-04-25T02:44:19.061Z,21.62
2019-04-25T02:46:54.521Z,22.10
2019-04-25T02:52:01.245Z,15.10
2019-04-25T02:54:34.869Z,17.25
2019-04-25T02:57:08.077Z,17.80
2019-04-25T02:59:40.191Z,17.48
2019-04-25T03:02:12.328Z,13.60
2019-04-25T03:04:44.633Z,16.02
2019-04-25T03:07:17.981Z,21.20
2019-04-25T03:09:49.434Z,22.07
2019-04-25T03:12:30.633Z,15.58
2019-04-25T03:14:55.122Z,15.72
2019-04-25T03:17:27.054Z,16.07
2019-04-25T03:20:01.432Z,19.95
2019-04-25T03:22:34.811Z,12.35
2019-04-25T03:25:11.531Z,14.45
2019-04-25T03:27:41.163Z,19.55
2019-04-25T03:30:17.686Z,19.42
2019-04-25T03:32:47.101Z,12.10
2019-04-25T03:35:19.189Z,21.90
2019-04-25T03:37:51.666Z,16.48
2019-04-25T03:40:24.641Z,12.10
2019-04-25T03:42:57.020Z,12.80
2019-04-25T03:45:28.775Z,14.63
2019-04-25T03:48:01.144Z,13.93
2019-04-25T03:50:34.075Z,15.23
2019-04-25T03:53:06.507Z,14.95
2019-04-25T03:55:38.644Z,21.25
2019-04-25T03:58:11.704Z,11.93
2019-04-25T04:00:44.878Z,11.53
2019-04-25T04:03:41.074Z,13.85
2019-04-25T04:06:15.209Z,19.75
2019-04-25T04:08:46.552Z,20.20
2019-04-25T04:11:39.082Z,15.75
2019-04-25T04:14:10.656Z,16.25
2019-04-25T04:16:44.388Z,20.70
2019-04-25T04:19:16.470Z,16.20
2019-04-25T04:21:50.303Z,17.55
2019-04-25T04:24:23.914Z,23.35
2019-04-25T04:29:30.189Z,21.35
2019-04-25T04:32:03.425Z,18.52
2019-04-25T04:34:35.558Z,15.98
2019-04-25T04:37:07.629Z,18.48
2019-04-25T04:39:39.687Z,21.25
2019-04-25T04:42:11.680Z,15.83
2019-04-25T04:44:43.731Z,15.38
2019-04-25T04:47:15.781Z,23.27
2019-04-25T04:49:48.752Z,18.20
2019-04-25T04:52:23.471Z,17.37
2019-04-25T04:55:05.441Z,23.20
2019-04-25T04:57:33.212Z,21.33
2019-04-25T05:00:01.004Z,18.80
2019-04-25T05:02:36.240Z,16.37
2019-04-25T05:05:25.418Z,12.90
2019-04-25T05:07:58.804Z,16.82
2019-04-25T05:10:33.284Z,19.07
2019-04-25T05:15:36.367Z,16.87
2019-04-25T05:18:08.500Z,21.73
2019-04-25T05:20:40.352Z,18.15
2019-04-25T05:23:13.426Z,17.40
2019-04-25T05:25:45.486Z,21.33
2019-04-25T05:28:18.512Z,20.82
2019-04-25T05:30:53.499Z,21.30
2019-04-25T05:33:25.880Z,18.73
2019-04-25T05:35:58.318Z,19.40
2019-04-25T05:38:30.236Z,20.45
2019-04-25T05:41:04.007Z,19.50
2019-04-25T05:43:36.814Z,16.45
2019-04-25T05:46:08.314Z,20.85
2019-04-25T05:48:40.057Z,18.12
2019-04-25T05:51:13.496Z,22.60
2019-04-25T05:53:47.197Z,21.23
2019-04-25T05:56:20.523Z,18.92
2019-04-25T05:58:54.038Z,21.25
2019-04-25T06:01:29.214Z,17.42
2019-04-25T06:04:00.827Z,19.20
2019-04-25T06:06:36.492Z,18.20
2019-04-25T06:09:08.315Z,21.17
2019-04-25T06:11:43.699Z,16.15
2019-04-25T06:14:18.280Z,20.85
2019-04-25T06:16:49.609Z,19.60
2019-04-25T06:19:25.193Z,23.87
2019-04-25T06:21:56.316Z,21.40
2019-04-25T06:24:30.213Z,19.17
2019-04-25T06:27:03.869Z,24.77
2019-04-25T06:29:36.620Z,21.70
2019-04-25T06:32:08.756Z,21.23
2019-04-25T06:34:41.441Z,24.60
2019-04-25T06:37:13.892Z,23.57
2019-04-25T06:39:46.126Z,19.67
2019-04-25T06:42:18.370Z,17.92
2019-04-25T06:44:53.552Z,27.13
2019-04-25T06:47:27.921Z,22.32
2019-04-25T06:50:05.727Z,25.50
2019-04-25T06:52:36.963Z,23.52
2019-04-25T06:55:08.929Z,19.25
2019-04-25T06:57:40.786Z,22.30
2019-04-25T07:00:16.229Z,19.82
2019-04-25T07:02:48.121Z,23.47
2019-04-25T07:05:31.003Z,25.55
2019-04-25T07:07:54.271Z,19.62
2019-04-25T07:10:27.214Z,25.20
2019-04-25T07:12:59.634Z,21.37
2019-04-25T07:15:34.121Z,22.95
2019-04-25T07:18:06.275Z,21.12
2019-04-25T07:20:38.123Z,23.73
2019-04-25T07:23:10.853Z,22.17
2019-04-25T07:25:44.556Z,25.90
2019-04-25T07:28:24.173Z,22.57
2019-04-25T07:33:27.290Z,24.00
2019-04-25T07:35:58.441Z,24.50
2019-04-25T07:38:31.101Z,23.22
2019-04-25T07:41:03.520Z,19.73
2019-04-25T07:43:36.340Z,25.43
2019-04-25T07:46:08.178Z,23.30
2019-04-25T07:48:40.597Z,21.12
2019-04-25T07:51:16.191Z,28.90
2019-04-25T07:53:45.653Z,25.88
2019-04-25T07:56:17.715Z,21.40
2019-04-25T07:58:52.600Z,26.30
2019-04-25T08:01:23.623Z,30.45
2019-04-25T08:03:55.443Z,26.05
2019-04-25T08:06:27.744Z,27.02
2019-04-25T08:09:00.665Z,20.65
2019-04-25T08:11:34.188Z,24.45
2019-04-25T08:14:08.631Z,27.90
2019-04-25T08:16:42.011Z,23.30
2019-04-25T08:19:14.600Z,24.65
2019-04-25T08:21:46.563Z,22.32
2019-04-25T08:24:18.512Z,23.25
2019-04-25T08:26:53.319Z,29.92
2019-04-25T08:29:25.452Z,30.25
2019-04-25T08:31:57.580Z,26.48
2019-04-25T08:34:30.847Z,23.95
2019-04-25T08:37:04.001Z,31.55
2019-04-25T08:39:38.077Z,26.70
2019-04-25T08:42:08.869Z,26.07
2019-04-25T08:44:43.447Z,31.62
2019-04-25T08:47:15.392Z,37.13
2019-04-25T08:49:49.609Z,28.12
2019-04-25T08:52:24.349Z,27.48
2019-04-25T08:54:57.745Z,24.35
2019-04-25T08:57:33.861Z,25.40
2019-04-25T09:00:08.210Z,24.45
2019-04-25T09:02:44.724Z,26.93
2019-04-25T09:05:18.679Z,26.12
2019-04-25T09:07:50.851Z,25.08
2019-04-25T09:10:23.729Z,28.47
2019-04-25T09:12:56.109Z,27.62
2019-04-25T09:15:27.870Z,27.52
2019-04-25T09:17:59.846Z,26.87
2019-04-25T09:20:31.887Z,28.12
2019-04-25T09:23:04.908Z,28.77
2019-04-25T09:25:36.957Z,28.77
2019-04-25T09:28:08.828Z,34.38
2019-04-25T09:30:40.865Z,31.23
2019-04-25T09:33:13.298Z,27.95
2019-04-25T09:35:47.709Z,25.20
2019-04-25T09:38:19.741Z,29.52
2019-04-25T09:40:51.990Z,29.30
2019-04-25T09:43:24.056Z,22.93
2019-04-25T09:45:57.137Z,26.55
2019-04-25T09:48:30.335Z,28.27
2019-04-25T09:51:05.545Z,27.70
2019-04-25T09:53:44.720Z,40.88
2019-04-25T09:56:14.205Z,60.23
2019-04-25T09:58:49.467Z,37.10
2019-04-25T10:01:21.446Z,29.45
2019-04-25T10:03:54.416Z,38.92
2019-04-25T10:06:26.432Z,32.78
2019-04-25T10:08:59.873Z,34.18
2019-04-25T10:11:33.496Z,31.52
2019-04-25T10:14:06.741Z,34.15
2019-04-25T10:16:38.997Z,32.17
2019-04-25T10:19:10.699Z,26.65
2019-04-25T10:21:42.456Z,28.50
2019-04-25T10:24:14.226Z,37.75
2019-04-25T10:26:46.359Z,35.83
2019-04-25T10:29:18.564Z,39.80
2019-04-25T10:31:52.132Z,39.90
2019-04-25T10:34:25.321Z,35.98
2019-04-25T10:36:57.078Z,34.40
2019-04-25T10:39:29.248Z,36.50
2019-04-25T10:42:03.473Z,35.30
2019-04-25T10:44:35.610Z,50.20
2019-04-25T10:47:07.781Z,40.73
2019-04-25T10:49:40.682Z,53.35
2019-04-25T10:52:13.970Z,48.42
2019-04-25T10:54:46.766Z,41.80
2019-04-25T10:57:20.130Z,38.15
2019-04-25T11:00:00.409Z,34.35
2019-04-25T11:02:25.646Z,30.92
2019-04-25T11:04:59.092Z,36.25
2019-04-25T11:07:31.050Z,40.28
2019-04-25T11:10:03.582Z,47.23
2019-04-25T11:12:36.854Z,34.13
2019-04-25T11:15:09.189Z,38.02
2019-04-25T11:17:42.581Z,39.73
2019-04-25T11:20:15.576Z,36.88
2019-04-25T11:22:49.579Z,35.85
2019-04-25T11:25:21.175Z,37.85
2019-04-25T11:27:54.156Z,34.45
2019-04-25T11:30:28.023Z,38.08
2019-04-25T11:33:00.176Z,31.97
2019-04-25T11:35:34.320Z,35.17
2019-04-25T11:38:08.160Z,30.57
2019-04-25T11:40:43.444Z,39.33
2019-04-25T11:43:15.165Z,37.78
2019-04-25T11:45:47.389Z,41.88
2019-04-25T11:48:20.051Z,39.00
2019-04-25T11:50:52.517Z,36.83
2019-04-25T11:53:25.128Z,38.05
2019-04-25T11:55:56.993Z,39.75
2019-04-25T11:58:28.952Z,35.00
2019-04-25T12:01:00.877Z,40.12
2019-04-25T12:03:33.710Z,35.48
2019-04-25T12:06:05.845Z,40.67
2019-04-25T12:08:41.133Z,35.05
2019-04-25T12:11:17.059Z,37.55
2019-04-25T12:13:50.011Z,34.50
2019-04-25T12:16:21.890Z,30.43
2019-04-25T12:18:56.117Z,41.13
2019-04-25T12:21:27.054Z,36.83
2019-04-25T12:24:01.686Z,31.70
2019-04-25T12:26:35.200Z,35.98
2019-04-25T12:29:08.227Z,32.60
2019-04-25T12:31:44.234Z,41.53
2019-04-25T12:34:18.229Z,38.28
2019-04-25T12:36:50.735Z,39.13
2019-04-25T12:39:24.305Z,46.45
2019-04-25T12:41:57.049Z,42.60
2019-04-25T12:44:31.884Z,43.15
2019-04-25T12:47:05.493Z,47.75
2019-04-25T12:49:37.549Z,48.00
2019-04-25T12:52:09.325Z,40.30
2019-04-25T12:54:41.486Z,44.75
2019-04-25T12:57:14.672Z,41.45
2019-04-25T12:59:47.337Z,35.90
2019-04-25T13:02:19.756Z,36.73
2019-04-25T13:04:55.207Z,37.83
2019-04-25T13:07:26.315Z,41.02
2019-04-25T13:09:58.898Z,35.80
2019-04-25T13:12:30.713Z,40.25
2019-04-25T13:15:03.232Z,41.98
2019-04-25T13:17:37.835Z,39.08
2019-04-25T13:20:09.687Z,42.98
2019-04-25T13:22:42.948Z,47.20
2019-04-25T13:25:17.207Z,41.08
2019-04-25T13:27:50.609Z,36.95
2019-04-25T13:30:24.182Z,40.28
2019-04-25T13:32:58.725Z,45.33
2019-04-25T13:35:33.551Z,34.35
2019-04-25T13:38:11.100Z,35.48
2019-04-25T13:40:44.106Z,37.33
2019-04-25T13:43:16.249Z,41.45
2019-04-25T13:45:49.811Z,34.33
2019-04-25T13:48:26.655Z,45.98
2019-04-25T13:50:59.602Z,39.13
2019-04-25T13:53:33.450Z,34.98
2019-04-25T13:56:07.086Z,35.10
2019-04-25T13:58:40.261Z,45.57
2019-04-25T14:01:17.127Z,36.23
2019-04-25T14:03:50.680Z,32.63
2019-04-25T14:06:24.953Z,37.53
2019-04-25T14:08:56.843Z,35.25
2019-04-25T14:11:30.071Z,35.63
2019-04-25T14:14:02.386Z,35.50
2019-04-25T14:16:35.864Z,41.77
2019-04-25T14:19:09.064Z,45.78
2019-04-25T14:21:43.298Z,40.30
2019-04-25T14:24:20.681Z,41.45
2019-04-25T14:26:50.672Z,38.85
2019-04-25T14:29:23.797Z,38.15
2019-04-25T14:31:56.758Z,44.58
2019-04-25T14:34:33.458Z,39.08
2019-04-25T14:39:34.518Z,36.93
2019-04-25T14:42:11.106Z,41.83
2019-04-25T14:44:43.796Z,50.30
2019-04-25T14:47:17.004Z,50.50
2019-04-25T14:49:49.067Z,48.87
2019-04-25T14:52:20.995Z,48.13
2019-04-25T14:55:12.059Z,45.25
2019-04-25T14:57:45.775Z,43.00
2019-04-25T15:00:19.566Z,42.45
2019-04-25T15:02:54.233Z,48.68
2019-04-25T15:05:26.455Z,44.95
2019-04-25T15:07:59.712Z,42.73
2019-04-25T15:10:32.148Z,44.65
2019-04-25T15:13:06.483Z,45.35
2019-04-25T15:15:38.418Z,41.68
2019-04-25T15:18:12.607Z,40.48
2019-04-25T15:20:44.510Z,38.28
2019-04-25T15:23:16.745Z,42.70
2019-04-25T15:25:49.438Z,44.25
2019-04-25T15:28:21.396Z,47.15
2019-04-25T15:30:54.209Z,41.65
2019-04-25T15:33:26.543Z,48.10
2019-04-25T15:36:01.472Z,39.55
2019-04-25T15:38:36.309Z,44.77
2019-04-25T15:41:09.700Z,40.45
2019-04-25T15:43:43.415Z,42.43
2019-04-25T15:46:18.022Z,40.43
2019-04-25T15:48:51.124Z,37.35
2019-04-25T15:51:23.381Z,42.08
2019-04-25T15:53:56.570Z,40.17
2019-04-25T15:56:28.673Z,38.92
2019-04-25T15:59:05.009Z,38.67
2019-04-25T16:01:37.489Z,36.23
2019-04-25T16:04:10.391Z,44.10
2019-04-25T16:06:43.046Z,41.18
2019-04-25T16:09:16.029Z,48.23
2019-04-25T16:11:50.146Z,47.15
2019-04-25T16:14:23.740Z,38.33
2019-04-25T16:16:56.323Z,40.65
2019-04-25T16:19:29.612Z,46.35
2019-04-25T16:22:03.523Z,56.50
2019-04-25T16:24:35.391Z,36.27
2019-04-25T16:27:09.714Z,42.33
2019-04-25T16:29:44.220Z,49.03
2019-04-25T16:32:20.811Z,42.25
2019-04-25T16:34:51.460Z,42.98
2019-04-25T16:37:25.124Z,37.63
2019-04-25T16:39:58.556Z,41.50
2019-04-25T16:42:31.662Z,46.92
2019-04-25T16:45:03.442Z,42.05
2019-04-25T16:47:37.371Z,42.62
2019-04-25T16:50:10.661Z,39.27
2019-04-25T16:52:43.805Z,41.00
2019-04-25T16:55:16.322Z,37.48
2019-04-25T16:57:48.283Z,41.80
2019-04-25T17:00:22.312Z,38.15
2019-04-25T17:02:54.319Z,34.63
2019-04-25T17:05:27.151Z,37.38
2019-04-25T17:07:59.094Z,49.18
2019-04-25T17:10:31.456Z,36.55
2019-04-25T17:13:03.139Z,42.20
2019-04-25T17:15:36.338Z,47.90
2019-04-25T17:18:10.552Z,41.95
2019-04-25T17:20:44.365Z,39.48
2019-04-25T17:23:16.415Z,41.63
2019-04-25T17:25:49.205Z,43.13
2019-04-25T17:28:21.345Z,40.17
2019-04-25T17:30:55.460Z,39.83
2019-04-25T17:33:28.663Z,39.92
2019-04-25T17:36:01.843Z,38.42
2019-04-25T17:38:37.576Z,41.23
2019-04-25T17:41:09.553Z,37.60
2019-04-25T17:43:43.892Z,46.00
2019-04-25T17:46:17.277Z,39.55
2019-04-25T17:48:49.137Z,44.35
2019-04-25T17:51:20.813Z,42.65
2019-04-25T17:53:52.587Z,42.35
2019-04-25T17:56:24.291Z,43.80
2019-04-25T17:58:55.846Z,42.98
2019-04-25T18:01:27.919Z,40.38
2019-04-25T18:03:59.673Z,49.42
2019-04-25T18:06:31.135Z,41.23
2019-04-25T18:09:02.682Z,38.92
2019-04-25T18:11:36.003Z,41.55
2019-04-25T18:14:07.639Z,43.45
2019-04-25T18:16:40.812Z,40.73
2019-04-25T18:19:14.410Z,35.90
2019-04-25T18:21:45.996Z,43.55
2019-04-25T18:24:19.154Z,43.87
2019-04-25T18:29:26.556Z,44.75
2019-04-25T18:31:58.336Z,48.28
2019-04-25T18:36:58.757Z,47.17
2019-04-25T18:39:31.947Z,39.18
2019-04-25T18:42:07.990Z,34.78
2019-04-25T18:47:09.776Z,41.98
2019-04-25T18:49:42.862Z,42.45
2019-04-25T18:52:16.108Z,42.15
2019-04-25T18:54:49.151Z,40.03
2019-04-25T18:57:22.448Z,36.75
2019-04-25T18:59:55.840Z,42.45
2019-04-25T19:02:29.130Z,47.23
2019-04-25T19:05:02.427Z,40.15
2019-04-25T19:07:34.756Z,43.00
2019-04-25T19:10:08.400Z,41.85
2019-04-25T19:12:41.203Z,42.27
2019-04-25T19:15:12.947Z,40.25
2019-04-25T19:17:45.493Z,40.15
2019-04-25T19:20:17.719Z,47.03
2019-04-25T19:22:49.642Z,44.13
2019-04-25T19:25:22.012Z,43.95
2019-04-25T19:27:53.876Z,44.75
2019-04-25T19:30:25.627Z,43.70
2019-04-25T19:32:57.992Z,45.12
2019-04-25T19:35:29.763Z,41.42
2019-04-25T19:38:02.848Z,49.55
2019-04-25T19:40:36.037Z,41.42
2019-04-25T19:43:09.225Z,41.35
2019-04-25T19:45:41.306Z,47.93
2019-04-25T19:48:13.022Z,38.60
2019-04-25T19:50:44.595Z,41.02
2019-04-25T19:53:16.664Z,34.27
2019-04-25T19:55:49.631Z,38.28
2019-04-25T19:58:21.717Z,41.05
2019-04-25T20:00:53.788Z,39.13
2019-04-25T20:03:26.971Z,37.45
2019-04-25T20:06:00.363Z,41.00
2019-04-25T20:08:33.755Z,42.15
2019-04-25T20:11:06.741Z,41.42
2019-04-25T20:13:38.503Z,47.45
2019-04-25T20:16:10.772Z,41.18
2019-04-25T20:18:43.182Z,42.38
2019-04-25T20:21:15.622Z,38.23
2019-04-25T20:23:47.931Z,38.28
2019-04-25T20:26:19.853Z,36.38
2019-04-25T20:28:51.503Z,39.50
2019-04-25T20:31:23.359Z,39.65
2019-04-25T20:34:05.260Z,37.80
2019-04-25T20:36:28.729Z,41.77
2019-04-25T20:39:00.577Z,46.35
2019-04-25T20:41:34.235Z,36.68
2019-04-25T20:44:05.891Z,44.93
2019-04-25T20:46:37.623Z,39.63
2019-04-25T20:49:10.312Z,36.42
2019-04-25T20:51:42.432Z,39.88
2019-04-25T20:54:14.506Z,40.00
2019-04-25T20:56:46.881Z,43.40
2019-04-25T20:59:19.769Z,39.88
2019-04-25T21:01:53.548Z,37.28
2019-04-25T21:04:26.854Z,43.50
2019-04-25T21:06:58.479Z,39.95
2019-04-25T21:09:30.064Z,42.45
2019-04-25T21:12:03.214Z,40.38
2019-04-25T21:14:36.858Z,39.63
2019-04-25T21:17:10.242Z,33.33
2019-04-25T21:19:43.640Z,33.35
2019-04-25T21:22:15.621Z,30.20
2019-04-25T21:24:47.187Z,25.75
2019-04-25T21:27:18.983Z,24.00
2019-04-25T21:29:51.997Z,18.77
2019-04-25T21:32:24.990Z,15.65
2019-04-25T21:34:57.242Z,23.05
2019-04-25T21:37:29.012Z,19.65
2019-04-25T21:40:02.945Z,15.53
2019-04-25T21:42:36.830Z,11.22
2019-04-25T21:45:11.246Z,14.45
2019-04-25T21:47:42.795Z,13.83
2019-04-25T21:50:14.664Z,13.98
2019-04-25T21:52:47.154Z,13.50
2019-04-25T21:55:19.106Z,14.55
2019-04-25T21:57:50.840Z,13.40
2019-04-25T22:00:24.246Z,14.68
2019-04-25T22:02:58.122Z,12.28
2019-04-25T22:05:30.122Z,14.38
2019-04-25T22:08:02.613Z,19.12
2019-04-25T22:10:35.395Z,15.08
2019-04-25T22:13:16.576Z,14.50
2019-04-25T22:15:40.498Z,15.83
2019-04-25T22:18:12.097Z,12.98
2019-04-25T22:20:43.668Z,19.02
2019-04-25T22:23:15.773Z,17.25
2019-04-25T22:25:47.332Z,15.75
2019-04-25T22:28:19.426Z,14.40
2019-04-25T22:30:52.908Z,21.75
2019-04-25T22:33:26.827Z,15.05
2019-04-25T22:36:00.418Z,16.80
2019-04-25T22:38:32.189Z,18.53
2019-04-25T22:41:04.033Z,19.45
2019-04-25T22:43:38.050Z,18.07
2019-04-25T22:46:10.427Z,18.35
2019-04-25T22:48:44.120Z,17.27
2019-04-25T22:51:16.088Z,16.37
2019-04-25T22:53:48.907Z,18.32
2019-04-25T22:56:21.234Z,18.35
2019-04-25T22:58:53.011Z,18.62
2019-04-25T23:01:26.292Z,17.30
2019-04-25T23:03:59.681Z,13.75
2019-04-25T23:09:03.924Z,26.23
2019-04-25T23:11:37.719Z,29.18
2019-04-25T23:14:10.754Z,20.68
2019-04-25T23:16:42.731Z,29.27
2019-04-25T23:19:14.487Z,15.53
2019-04-25T23:21:46.704Z,18.55
2019-04-25T23:24:19.904Z,23.77
2019-04-25T23:26:53.175Z,13.83
2019-04-25T23:29:24.904Z,20.70
2019-04-25T23:31:56.690Z,17.48
2019-04-25T23:34:28.857Z,18.12
2019-04-25T23:37:00.390Z,16.93
2019-04-25T23:39:32.881Z,17.48
2019-04-25T23:42:05.951Z,14.95
2019-04-25T23:44:37.938Z,19.37
2019-04-25T23:47:10.110Z,16.57
2019-04-25T23:49:42.269Z,17.65
2019-04-25T23:52:15.131Z,15.48
2019-04-25T23:54:46.679Z,21.87
2019-04-25T23:57:18.643Z,18.20
2019-04-25T23:59:50.207Z,20.10
